sensor_id;sensor_type;location;lat;lon;timestamp;temperature;humidity
66871;DHT22;53780;44.998;9.926;2022-08-19T07:21:42;19.97;91.41
66871;DHT22;53780;44.998;9.926;2022-08-19T07:24:47;20.11;92.12
66871;DHT22;53780;44.998;9.926;2022-08-19T07:27:51;20.27;91.72
66871;DHT22;53780;44.998;9.926;2022-08-19T07:35:03;20.35;89.19
66871;DHT22;53780;44.998;9.926;2022-08-19T07:38:09;20.34;87.85
66871;DHT22;53780;44.998;9.926;2022-08-19T07:41:17;20.42;88.71
66871;DHT22;53780;44.998;9.926;2022-08-19T07:44:22;20.39;87.03
66871;DHT22;53780;44.998;9.926;2022-08-19T07:47:26;20.53;88.16
66871;DHT22;53780;44.998;9.926;2022-08-19T07:50:31;20.59;87.71
66871;DHT22;53780;44.998;9.926;2022-08-19T07:53:36;20.72;88.64
66871;DHT22;53780;44.998;9.926;2022-08-19T07:56:40;20.68;86.37
66871;DHT22;53780;44.998;9.926;2022-08-19T07:59:44;20.89;89.21
66871;DHT22;53780;44.998;9.926;2022-08-19T08:02:48;21.11;89.66
66871;DHT22;53780;44.998;9.926;2022-08-19T08:05:55;21.37;90.56
66871;DHT22;53780;44.998;9.926;2022-08-19T08:09:24;21.63;89.54
66871;DHT22;53780;44.998;9.926;2022-08-19T08:12:33;21.78;86.09
66871;DHT22;53780;44.998;9.926;2022-08-19T08:15:38;21.66;83.62
66871;DHT22;53780;44.998;9.926;2022-08-19T08:18:42;21.86;83.57
66871;DHT22;53780;44.998;9.926;2022-08-19T08:21:48;21.92;85.41
66871;DHT22;53780;44.998;9.926;2022-08-19T08:24:52;21.90;85.77
66871;DHT22;53780;44.998;9.926;2022-08-19T08:27:57;21.90;84.90
66871;DHT22;53780;44.998;9.926;2022-08-19T08:31:04;21.78;84.32
66871;DHT22;53780;44.998;9.926;2022-08-19T08:34:08;21.69;85.25
66871;DHT22;53780;44.998;9.926;2022-08-19T08:37:12;21.78;85.30
66871;DHT22;53780;44.998;9.926;2022-08-19T08:43:40;21.72;85.87
66871;DHT22;53780;44.998;9.926;2022-08-19T08:46:55;21.65;86.25
66871;DHT22;53780;44.998;9.926;2022-08-19T08:53:06;21.79;88.27
66871;DHT22;53780;44.998;9.926;2022-08-19T08:56:12;21.97;87.50
66871;DHT22;53780;44.998;9.926;2022-08-19T08:59:22;22.20;88.54
66871;DHT22;53780;44.998;9.926;2022-08-19T09:02:26;22.43;89.10
66871;DHT22;53780;44.998;9.926;2022-08-19T09:05:54;22.65;86.41
66871;DHT22;53780;44.998;9.926;2022-08-19T09:09:30;23.02;86.53
66871;DHT22;53780;44.998;9.926;2022-08-19T09:12:55;23.22;83.91
66871;DHT22;53780;44.998;9.926;2022-08-19T09:16:08;23.50;83.88
66871;DHT22;53780;44.998;9.926;2022-08-19T09:19:14;23.37;83.16
66871;DHT22;53780;44.998;9.926;2022-08-19T09:22:19;23.31;84.48
66871;DHT22;53780;44.998;9.926;2022-08-19T09:25:26;23.27;83.09
66871;DHT22;53780;44.998;9.926;2022-08-19T09:28:30;23.16;83.07
66871;DHT22;53780;44.998;9.926;2022-08-19T09:31:34;23.09;82.14
66871;DHT22;53780;44.998;9.926;2022-08-19T09:34:38;22.99;81.54
66871;DHT22;53780;44.998;9.926;2022-08-19T09:37:42;22.98;81.97
66871;DHT22;53780;44.998;9.926;2022-08-19T09:40:48;23.05;83.11
66871;DHT22;53780;44.998;9.926;2022-08-19T09:43:54;23.07;82.98
66871;DHT22;53780;44.998;9.926;2022-08-19T09:47:01;22.95;80.56
66871;DHT22;53780;44.998;9.926;2022-08-19T09:50:09;22.85;81.23
66871;DHT22;53780;44.998;9.926;2022-08-19T09:53:13;22.84;83.24
66871;DHT22;53780;44.998;9.926;2022-08-19T09:56:18;22.71;83.74
66871;DHT22;53780;44.998;9.926;2022-08-19T09:59:22;22.68;84.17
66871;DHT22;53780;44.998;9.926;2022-08-19T10:02:27;22.67;84.65
66871;DHT22;53780;44.998;9.926;2022-08-19T10:05:32;22.52;81.68
66871;DHT22;53780;44.998;9.926;2022-08-19T10:08:53;22.36;82.06
66871;DHT22;53780;44.998;9.926;2022-08-19T10:11:56;22.29;79.69
66871;DHT22;53780;44.998;9.926;2022-08-19T10:15:01;22.36;81.97
66871;DHT22;53780;44.998;9.926;2022-08-19T10:18:06;22.40;81.21
66871;DHT22;53780;44.998;9.926;2022-08-19T10:21:20;22.41;81.46
66871;DHT22;53780;44.998;9.926;2022-08-19T10:24:25;22.34;78.38
66871;DHT22;53780;44.998;9.926;2022-08-19T10:27:30;22.37;80.54
66871;DHT22;53780;44.998;9.926;2022-08-19T10:30:35;22.49;82.61
66871;DHT22;53780;44.998;9.926;2022-08-19T10:33:40;22.65;84.13
66871;DHT22;53780;44.998;9.926;2022-08-19T10:36:44;22.67;84.04
66871;DHT22;53780;44.998;9.926;2022-08-19T10:39:48;22.69;83.28
66871;DHT22;53780;44.998;9.926;2022-08-19T10:42:53;22.75;81.82
66871;DHT22;53780;44.998;9.926;2022-08-19T10:45:58;22.81;84.61
66871;DHT22;53780;44.998;9.926;2022-08-19T10:49:04;22.86;83.20
66871;DHT22;53780;44.998;9.926;2022-08-19T10:52:09;22.92;84.11
66871;DHT22;53780;44.998;9.926;2022-08-19T10:55:31;22.84;83.21
66871;DHT22;53780;44.998;9.926;2022-08-19T10:58:53;22.82;85.17
66871;DHT22;53780;44.998;9.926;2022-08-19T11:02:02;22.67;84.71
66871;DHT22;53780;44.998;9.926;2022-08-19T11:05:07;22.48;84.88
66871;DHT22;53780;44.998;9.926;2022-08-19T11:08:14;22.44;85.70
66871;DHT22;53780;44.998;9.926;2022-08-19T11:11:18;22.49;84.04
66871;DHT22;53780;44.998;9.926;2022-08-19T11:14:22;22.52;84.59
66871;DHT22;53780;44.998;9.926;2022-08-19T11:17:27;22.54;82.66
66871;DHT22;53780;44.998;9.926;2022-08-19T11:20:31;22.65;84.34
66871;DHT22;53780;44.998;9.926;2022-08-19T11:23:34;22.85;85.03
66871;DHT22;53780;44.998;9.926;2022-08-19T11:26:40;23.24;82.42
66871;DHT22;53780;44.998;9.926;2022-08-19T11:29:45;23.86;81.34
66871;DHT22;53780;44.998;9.926;2022-08-19T11:32:49;24.17;76.29
66871;DHT22;53780;44.998;9.926;2022-08-19T11:35:53;24.44;75.36
66871;DHT22;53780;44.998;9.926;2022-08-19T11:38:57;25.12;76.39
66871;DHT22;53780;44.998;9.926;2022-08-19T11:42:02;25.69;74.64
66871;DHT22;53780;44.998;9.926;2022-08-19T11:45:27;25.78;71.83
66871;DHT22;53780;44.998;9.926;2022-08-19T11:48:31;25.98;71.80
66871;DHT22;53780;44.998;9.926;2022-08-19T11:51:35;26.24;72.29
66871;DHT22;53780;44.998;9.926;2022-08-19T11:54:40;26.43;70.62
66871;DHT22;53780;44.998;9.926;2022-08-19T11:57:43;26.67;71.53
66871;DHT22;53780;44.998;9.926;2022-08-19T12:00:47;26.84;69.26
66871;DHT22;53780;44.998;9.926;2022-08-19T12:03:54;27.15;71.77
66871;DHT22;53780;44.998;9.926;2022-08-19T12:06:58;27.07;68.46
66871;DHT22;53780;44.998;9.926;2022-08-19T12:10:02;26.86;68.28
66871;DHT22;53780;44.998;9.926;2022-08-19T12:13:07;26.91;69.61
66871;DHT22;53780;44.998;9.926;2022-08-19T12:16:14;26.70;71.00
66871;DHT22;53780;44.998;9.926;2022-08-19T12:19:19;26.42;66.02
66871;DHT22;53780;44.998;9.926;2022-08-19T12:22:23;26.56;69.96
66871;DHT22;53780;44.998;9.926;2022-08-19T12:25:26;26.63;67.96
66871;DHT22;53780;44.998;9.926;2022-08-19T12:28:31;26.49;67.13
66871;DHT22;53780;44.998;9.926;2022-08-19T12:31:35;26.49;66.23
66871;DHT22;53780;44.998;9.926;2022-08-19T12:34:39;26.52;67.52
66871;DHT22;53780;44.998;9.926;2022-08-19T12:37:43;26.55;64.96
66871;DHT22;53780;44.998;9.926;2022-08-19T12:40:48;26.59;66.38
66871;DHT22;53780;44.998;9.926;2022-08-19T12:43:53;26.66;69.80
66871;DHT22;53780;44.998;9.926;2022-08-19T12:46:58;26.66;67.57
66871;DHT22;53780;44.998;9.926;2022-08-19T12:50:02;26.60;67.63
66871;DHT22;53780;44.998;9.926;2022-08-19T12:53:06;26.67;69.67
66871;DHT22;53780;44.998;9.926;2022-08-19T12:56:13;26.73;71.62
66871;DHT22;53780;44.998;9.926;2022-08-19T12:59:18;26.76;67.85
66871;DHT22;53780;44.998;9.926;2022-08-19T13:02:22;26.70;69.45
66871;DHT22;53780;44.998;9.926;2022-08-19T13:05:29;26.69;70.48
66871;DHT22;53780;44.998;9.926;2022-08-19T13:08:34;26.70;69.99
66871;DHT22;53780;44.998;9.926;2022-08-19T13:11:39;26.59;68.31
66871;DHT22;53780;44.998;9.926;2022-08-19T13:14:43;26.60;68.63
66871;DHT22;53780;44.998;9.926;2022-08-19T13:17:50;26.45;67.87
66871;DHT22;53780;44.998;9.926;2022-08-19T13:20:55;26.24;68.12
66871;DHT22;53780;44.998;9.926;2022-08-19T13:24:00;26.26;69.65
66871;DHT22;53780;44.998;9.926;2022-08-19T13:27:04;26.25;70.18
66871;DHT22;53780;44.998;9.926;2022-08-19T13:30:11;26.31;66.36
66871;DHT22;53780;44.998;9.926;2022-08-19T13:33:33;26.35;67.84
66871;DHT22;53780;44.998;9.926;2022-08-19T13:36:39;26.39;68.67
66871;DHT22;53780;44.998;9.926;2022-08-19T13:39:42;26.49;67.64
66871;DHT22;53780;44.998;9.926;2022-08-19T13:42:48;26.55;67.68
66871;DHT22;53780;44.998;9.926;2022-08-19T13:45:54;26.61;68.22
66871;DHT22;53780;44.998;9.926;2022-08-19T13:48:59;26.61;67.72
66871;DHT22;53780;44.998;9.926;2022-08-19T13:52:05;26.64;67.91
66871;DHT22;53780;44.998;9.926;2022-08-19T13:55:10;26.66;66.30
66871;DHT22;53780;44.998;9.926;2022-08-19T13:58:18;26.66;65.13
66871;DHT22;53780;44.998;9.926;2022-08-19T14:01:22;26.60;66.24
66871;DHT22;53780;44.998;9.926;2022-08-19T14:04:27;26.57;66.83
66871;DHT22;53780;44.998;9.926;2022-08-19T14:07:31;26.53;65.35
66871;DHT22;53780;44.998;9.926;2022-08-19T14:10:35;26.59;64.27
66871;DHT22;53780;44.998;9.926;2022-08-19T14:13:39;26.63;64.31
66871;DHT22;53780;44.998;9.926;2022-08-19T14:16:43;26.69;64.34
66871;DHT22;53780;44.998;9.926;2022-08-19T14:19:46;26.61;63.41
66871;DHT22;53780;44.998;9.926;2022-08-19T14:22:51;26.49;63.22
66871;DHT22;53780;44.998;9.926;2022-08-19T14:26:08;26.46;64.13
66871;DHT22;53780;44.998;9.926;2022-08-19T14:29:13;26.43;64.27
66871;DHT22;53780;44.998;9.926;2022-08-19T14:32:17;26.40;64.84
66871;DHT22;53780;44.998;9.926;2022-08-19T14:35:22;26.33;63.72
66871;DHT22;53780;44.998;9.926;2022-08-19T14:38:26;26.32;64.12
66871;DHT22;53780;44.998;9.926;2022-08-19T14:41:35;26.35;65.88
66871;DHT22;53780;44.998;9.926;2022-08-19T14:44:40;26.29;65.96
66871;DHT22;53780;44.998;9.926;2022-08-19T14:47:44;26.29;64.33
66871;DHT22;53780;44.998;9.926;2022-08-19T14:50:48;26.50;65.17
66871;DHT22;53780;44.998;9.926;2022-08-19T14:53:53;26.57;63.18
66871;DHT22;53780;44.998;9.926;2022-08-19T14:56:57;26.66;65.49
66871;DHT22;53780;44.998;9.926;2022-08-19T15:00:03;26.60;65.49
66871;DHT22;53780;44.998;9.926;2022-08-19T15:03:07;26.67;61.21
66871;DHT22;53780;44.998;9.926;2022-08-19T15:06:11;26.69;64.03
66871;DHT22;53780;44.998;9.926;2022-08-19T15:09:15;26.70;63.90
66871;DHT22;53780;44.998;9.926;2022-08-19T15:12:19;26.73;62.17
66871;DHT22;53780;44.998;9.926;2022-08-19T15:15:23;26.77;62.51
66871;DHT22;53780;44.998;9.926;2022-08-19T15:18:27;26.70;64.40
66871;DHT22;53780;44.998;9.926;2022-08-19T15:21:30;26.64;63.29
66871;DHT22;53780;44.998;9.926;2022-08-19T15:24:34;26.72;63.18
66871;DHT22;53780;44.998;9.926;2022-08-19T15:27:39;26.76;61.79
66871;DHT22;53780;44.998;9.926;2022-08-19T15:30:44;26.70;64.11
66871;DHT22;53780;44.998;9.926;2022-08-19T15:33:48;26.73;63.44
66871;DHT22;53780;44.998;9.926;2022-08-19T15:36:52;26.76;62.60
66871;DHT22;53780;44.998;9.926;2022-08-19T15:39:56;26.82;61.58
66871;DHT22;53780;44.998;9.926;2022-08-19T15:43:00;26.76;62.00
66871;DHT22;53780;44.998;9.926;2022-08-19T15:46:04;26.80;60.79
66871;DHT22;53780;44.998;9.926;2022-08-19T15:49:09;26.87;60.17
66871;DHT22;53780;44.998;9.926;2022-08-19T15:52:14;26.90;60.43
66871;DHT22;53780;44.998;9.926;2022-08-19T15:55:20;26.87;60.64
66871;DHT22;53780;44.998;9.926;2022-08-19T15:58:24;26.84;60.65
66871;DHT22;53780;44.998;9.926;2022-08-19T16:01:47;26.76;59.48
66871;DHT22;53780;44.998;9.926;2022-08-19T16:05:11;26.73;62.13
66871;DHT22;53780;44.998;9.926;2022-08-19T16:08:34;26.73;60.23
66871;DHT22;53780;44.998;9.926;2022-08-19T16:11:38;26.76;61.69
66871;DHT22;53780;44.998;9.926;2022-08-19T16:14:42;26.73;60.93
66871;DHT22;53780;44.998;9.926;2022-08-19T16:17:46;26.90;63.39
66871;DHT22;53780;44.998;9.926;2022-08-19T16:20:50;26.87;62.00
66871;DHT22;53780;44.998;9.926;2022-08-19T16:23:55;26.87;59.45
66871;DHT22;53780;44.998;9.926;2022-08-19T16:26:59;26.93;61.76
66871;DHT22;53780;44.998;9.926;2022-08-19T16:30:04;26.90;62.57
66871;DHT22;53780;44.998;9.926;2022-08-19T16:33:08;26.80;59.17
66871;DHT22;53780;44.998;9.926;2022-08-19T16:36:13;26.74;60.38
66871;DHT22;53780;44.998;9.926;2022-08-19T16:39:16;26.76;62.93
66871;DHT22;53780;44.998;9.926;2022-08-19T16:42:20;26.73;62.43
66871;DHT22;53780;44.998;9.926;2022-08-19T16:45:24;26.76;61.48
66871;DHT22;53780;44.998;9.926;2022-08-19T16:48:29;26.70;63.57
66871;DHT22;53780;44.998;9.926;2022-08-19T16:51:33;26.63;62.43
66871;DHT22;53780;44.998;9.926;2022-08-19T16:54:37;26.60;63.25
66871;DHT22;53780;44.998;9.926;2022-08-19T16:57:42;26.55;63.37
66871;DHT22;53780;44.998;9.926;2022-08-19T17:00:47;26.53;62.61
66871;DHT22;53780;44.998;9.926;2022-08-19T17:03:53;26.53;62.70
66871;DHT22;53780;44.998;9.926;2022-08-19T17:06:57;26.50;63.84
66871;DHT22;53780;44.998;9.926;2022-08-19T17:10:03;26.43;64.52
66871;DHT22;53780;44.998;9.926;2022-08-19T17:13:07;26.35;62.77
66871;DHT22;53780;44.998;9.926;2022-08-19T17:16:11;26.29;63.50
66871;DHT22;53780;44.998;9.926;2022-08-19T17:19:16;26.22;65.14
66871;DHT22;53780;44.998;9.926;2022-08-19T17:22:19;26.18;66.02
66871;DHT22;53780;44.998;9.926;2022-08-19T17:25:25;26.09;66.26
66871;DHT22;53780;44.998;9.926;2022-08-19T17:28:29;26.00;67.12
66871;DHT22;53780;44.998;9.926;2022-08-19T17:31:33;25.85;68.40
66871;DHT22;53780;44.998;9.926;2022-08-19T17:34:37;25.80;68.62
66871;DHT22;53780;44.998;9.926;2022-08-19T17:37:41;25.71;69.87
66871;DHT22;53780;44.998;9.926;2022-08-19T17:40:45;25.62;70.61
66871;DHT22;53780;44.998;9.926;2022-08-19T17:43:50;25.53;69.67
66871;DHT22;53780;44.998;9.926;2022-08-19T17:46:54;25.43;71.62
66871;DHT22;53780;44.998;9.926;2022-08-19T17:49:58;25.29;71.24
66871;DHT22;53780;44.998;9.926;2022-08-19T17:53:03;25.22;71.12
66871;DHT22;53780;44.998;9.926;2022-08-19T17:56:08;25.11;71.53
66871;DHT22;53780;44.998;9.926;2022-08-19T17:59:13;25.05;71.20
66871;DHT22;53780;44.998;9.926;2022-08-19T18:02:18;25.05;70.06
66871;DHT22;53780;44.998;9.926;2022-08-19T18:05:25;25.04;70.56
66871;DHT22;53780;44.998;9.926;2022-08-19T18:08:31;25.02;70.40
66871;DHT22;53780;44.998;9.926;2022-08-19T18:11:35;24.99;69.91
66871;DHT22;53780;44.998;9.926;2022-08-19T18:14:39;24.98;68.99
66871;DHT22;53780;44.998;9.926;2022-08-19T18:17:45;24.99;68.53
66871;DHT22;53780;44.998;9.926;2022-08-19T18:20:50;24.96;68.89
66871;DHT22;53780;44.998;9.926;2022-08-19T18:23:54;24.92;69.34
66871;DHT22;53780;44.998;9.926;2022-08-19T18:26:58;24.91;68.23
66871;DHT22;53780;44.998;9.926;2022-08-19T18:30:05;24.96;68.81
66871;DHT22;53780;44.998;9.926;2022-08-19T18:33:09;24.96;69.10
66871;DHT22;53780;44.998;9.926;2022-08-19T18:36:17;24.94;69.50
66871;DHT22;53780;44.998;9.926;2022-08-19T18:39:21;24.92;71.25
66871;DHT22;53780;44.998;9.926;2022-08-19T18:42:44;24.87;71.14
66871;DHT22;53780;44.998;9.926;2022-08-19T18:46:07;24.80;70.77
66871;DHT22;53780;44.998;9.926;2022-08-19T18:49:31;24.81;68.99
66871;DHT22;53780;44.998;9.926;2022-08-19T18:52:36;24.82;69.04
66871;DHT22;53780;44.998;9.926;2022-08-19T18:55:40;24.87;69.17
66871;DHT22;53780;44.998;9.926;2022-08-19T18:58:43;24.84;70.95
66871;DHT22;53780;44.998;9.926;2022-08-19T19:01:48;24.72;72.43
66871;DHT22;53780;44.998;9.926;2022-08-19T19:04:54;24.63;74.70
66871;DHT22;53780;44.998;9.926;2022-08-19T19:07:58;24.52;75.54
66871;DHT22;53780;44.998;9.926;2022-08-19T19:11:03;24.41;76.11
66871;DHT22;53780;44.998;9.926;2022-08-19T19:14:09;24.30;76.97
66871;DHT22;53780;44.998;9.926;2022-08-19T19:17:14;24.25;76.99
66871;DHT22;53780;44.998;9.926;2022-08-19T19:20:18;24.25;76.67
66871;DHT22;53780;44.998;9.926;2022-08-19T19:23:22;24.26;76.82
66871;DHT22;53780;44.998;9.926;2022-08-19T19:26:26;24.22;76.84
66871;DHT22;53780;44.998;9.926;2022-08-19T19:29:32;24.23;76.20
66871;DHT22;53780;44.998;9.926;2022-08-19T19:32:38;24.20;76.23
66871;DHT22;53780;44.998;9.926;2022-08-19T19:35:43;24.13;76.88
66871;DHT22;53780;44.998;9.926;2022-08-19T19:38:48;24.09;76.47
66871;DHT22;53780;44.998;9.926;2022-08-19T19:41:53;24.01;77.61
66871;DHT22;53780;44.998;9.926;2022-08-19T19:44:57;23.90;78.03
66871;DHT22;53780;44.998;9.926;2022-08-19T19:48:03;23.84;77.99
66871;DHT22;53780;44.998;9.926;2022-08-19T19:51:07;23.79;78.08
66871;DHT22;53780;44.998;9.926;2022-08-19T19:54:12;23.78;78.17
66871;DHT22;53780;44.998;9.926;2022-08-19T19:57:19;23.71;78.26
66871;DHT22;53780;44.998;9.926;2022-08-19T20:00:23;23.64;78.76
66871;DHT22;53780;44.998;9.926;2022-08-19T20:03:28;23.62;78.74
66871;DHT22;53780;44.998;9.926;2022-08-19T20:06:32;23.55;79.03
66871;DHT22;53780;44.998;9.926;2022-08-19T20:09:36;23.44;79.20
66871;DHT22;53780;44.998;9.926;2022-08-19T20:12:40;23.37;79.55
66871;DHT22;53780;44.998;9.926;2022-08-19T20:15:44;23.24;79.48
66871;DHT22;53780;44.998;9.926;2022-08-19T20:18:48;23.17;79.45
66871;DHT22;53780;44.998;9.926;2022-08-19T20:21:53;23.13;79.40
66871;DHT22;53780;44.998;9.926;2022-08-19T20:24:58;23.07;79.28
66871;DHT22;53780;44.998;9.926;2022-08-19T20:28:03;23.06;78.72
66871;DHT22;53780;44.998;9.926;2022-08-19T20:31:08;23.05;78.47
66871;DHT22;53780;44.998;9.926;2022-08-19T20:34:13;23.05;77.98
66871;DHT22;53780;44.998;9.926;2022-08-19T20:37:17;23.05;77.75
66871;DHT22;53780;44.998;9.926;2022-08-19T20:40:21;23.05;78.03
66871;DHT22;53780;44.998;9.926;2022-08-19T20:43:25;23.06;78.13
66871;DHT22;53780;44.998;9.926;2022-08-19T20:46:30;23.07;78.05
66871;DHT22;53780;44.998;9.926;2022-08-19T20:49:34;23.06;77.94
66871;DHT22;53780;44.998;9.926;2022-08-19T20:52:38;23.03;77.84
66871;DHT22;53780;44.998;9.926;2022-08-19T20:55:44;22.99;78.19
66871;DHT22;53780;44.998;9.926;2022-08-19T20:58:48;22.92;78.76
66871;DHT22;53780;44.998;9.926;2022-08-19T21:01:53;22.84;78.88
66871;DHT22;53780;44.998;9.926;2022-08-19T21:04:57;22.75;79.72
66871;DHT22;53780;44.998;9.926;2022-08-19T21:08:01;22.72;80.29
66871;DHT22;53780;44.998;9.926;2022-08-19T21:11:07;22.62;80.79
66871;DHT22;53780;44.998;9.926;2022-08-19T21:14:12;22.52;80.66
66871;DHT22;53780;44.998;9.926;2022-08-19T21:17:16;22.47;81.20
